sensor_id;sensor_type;location;lat;lon;timestamp;pressure;altitude;pressure_sealevel;temperature;humidity
21359;BME280;13506;50.852;20.632;2022-07-29T00:01:39;98693.13;;;18.87;59.73
21359;BME280;13506;50.852;20.632;2022-07-29T00:04:07;98688.16;;;18.94;59.50
21359;BME280;13506;50.852;20.632;2022-07-29T00:06:36;98692.72;;;18.82;59.69
21359;BME280;13506;50.852;20.632;2022-07-29T00:09:03;98694.78;;;18.88;59.56
21359;BME280;13506;50.852;20.632;2022-07-29T00:11:31;98695.06;;;18.85;59.58
21359;BME280;13506;50.852;20.632;2022-07-29T00:13:58;98693.19;;;18.97;59.22
21359;BME280;13506;50.852;20.632;2022-07-29T00:16:26;98696.47;;;18.89;59.75
21359;BME280;13506;50.852;20.632;2022-07-29T00:18:54;98702.41;;;18.60;60.74
21359;BME280;13506;50.852;20.632;2022-07-29T00:21:21;98697.50;;;18.46;61.27
21359;BME280;13506;50.852;20.632;2022-07-29T00:23:51;98692.25;;;18.46;61.51
21359;BME280;13506;50.852;20.632;2022-07-29T00:26:18;98696.72;;;18.55;61.67
21359;BME280;13506;50.852;20.632;2022-07-29T00:28:45;98687.13;;;18.54;61.69
21359;BME280;13506;50.852;20.632;2022-07-29T00:31:14;98695.63;;;18.37;62.16
21359;BME280;13506;50.852;20.632;2022-07-29T00:33:42;98702.50;;;18.07;63.73
21359;BME280;13506;50.852;20.632;2022-07-29T00:36:09;98707.84;;;18.38;62.31
21359;BME280;13506;50.852;20.632;2022-07-29T00:38:36;98707.78;;;18.49;61.79
21359;BME280;13506;50.852;20.632;2022-07-29T00:41:05;98711.44;;;18.37;62.34
21359;BME280;13506;50.852;20.632;2022-07-29T00:43:32;98701.41;;;18.30;62.14
21359;BME280;13506;50.852;20.632;2022-07-29T00:46:00;98703.34;;;18.49;61.65
21359;BME280;13506;50.852;20.632;2022-07-29T00:48:28;98692.66;;;18.51;61.86
21359;BME280;13506;50.852;20.632;2022-07-29T00:50:57;98709.38;;;18.61;61.73
21359;BME280;13506;50.852;20.632;2022-07-29T00:53:25;98707.56;;;18.62;61.59
21359;BME280;13506;50.852;20.632;2022-07-29T00:55:54;98713.66;;;18.62;61.49
21359;BME280;13506;50.852;20.632;2022-07-29T00:58:24;98709.69;;;18.68;61.15
21359;BME280;13506;50.852;20.632;2022-07-29T01:00:54;98705.38;;;18.67;61.36
21359;BME280;13506;50.852;20.632;2022-07-29T01:03:21;98707.31;;;18.65;61.29
21359;BME280;13506;50.852;20.632;2022-07-29T01:05:49;98711.03;;;18.62;61.58
21359;BME280;13506;50.852;20.632;2022-07-29T01:08:18;98713.63;;;18.31;62.31
21359;BME280;13506;50.852;20.632;2022-07-29T01:10:46;98705.63;;;18.33;62.05
21359;BME280;13506;50.852;20.632;2022-07-29T01:13:15;98706.75;;;18.19;62.80
21359;BME280;13506;50.852;20.632;2022-07-29T01:15:47;98701.06;;;18.35;62.09
21359;BME280;13506;50.852;20.632;2022-07-29T01:18:20;98703.75;;;18.24;62.31
21359;BME280;13506;50.852;20.632;2022-07-29T01:21:09;98712.47;;;18.24;62.82
21359;BME280;13506;50.852;20.632;2022-07-29T01:24:28;98707.28;;;18.13;63.21
21359;BME280;13506;50.852;20.632;2022-07-29T01:27:04;98706.63;;;18.21;62.44
21359;BME280;13506;50.852;20.632;2022-07-29T01:29:38;98705.22;;;18.17;62.54
21359;BME280;13506;50.852;20.632;2022-07-29T01:32:12;98701.63;;;18.18;62.63
21359;BME280;13506;50.852;20.632;2022-07-29T01:34:47;98692.75;;;17.98;63.05
21359;BME280;13506;50.852;20.632;2022-07-29T01:37:26;98697.03;;;17.99;62.97
21359;BME280;13506;50.852;20.632;2022-07-29T01:39:57;98695.06;;;17.80;64.32
21359;BME280;13506;50.852;20.632;2022-07-29T01:42:32;98690.63;;;17.92;63.70
21359;BME280;13506;50.852;20.632;2022-07-29T01:45:08;98696.16;;;17.77;64.21
21359;BME280;13506;50.852;20.632;2022-07-29T01:47:43;98694.41;;;17.66;64.83
21359;BME280;13506;50.852;20.632;2022-07-29T01:50:16;98695.22;;;17.78;64.02
21359;BME280;13506;50.852;20.632;2022-07-29T01:52:56;98695.72;;;17.72;64.70
21359;BME280;13506;50.852;20.632;2022-07-29T01:55:26;98688.38;;;17.43;65.91
21359;BME280;13506;50.852;20.632;2022-07-29T01:57:57;98691.22;;;17.52;65.68
21359;BME280;13506;50.852;20.632;2022-07-29T02:00:28;98686.75;;;17.31;66.88
21359;BME280;13506;50.852;20.632;2022-07-29T02:02:59;98690.16;;;17.11;68.52
21359;BME280;13506;50.852;20.632;2022-07-29T02:05:31;98686.56;;;17.00;69.32
21359;BME280;13506;50.852;20.632;2022-07-29T02:08:01;98695.59;;;17.30;68.05
21359;BME280;13506;50.852;20.632;2022-07-29T02:10:32;98691.34;;;17.06;69.25
21359;BME280;13506;50.852;20.632;2022-07-29T02:13:03;98693.72;;;17.09;69.14
21359;BME280;13506;50.852;20.632;2022-07-29T02:15:33;98689.56;;;16.96;69.40
21359;BME280;13506;50.852;20.632;2022-07-29T02:18:04;98689.81;;;17.04;69.97
21359;BME280;13506;50.852;20.632;2022-07-29T02:20:32;98691.31;;;17.18;69.12
21359;BME280;13506;50.852;20.632;2022-07-29T02:23:02;98695.38;;;17.22;68.48
21359;BME280;13506;50.852;20.632;2022-07-29T02:25:31;98696.69;;;17.27;68.59
21359;BME280;13506;50.852;20.632;2022-07-29T02:27:59;98690.13;;;17.22;68.60
21359;BME280;13506;50.852;20.632;2022-07-29T02:30:29;98698.97;;;17.21;68.46
21359;BME280;13506;50.852;20.632;2022-07-29T02:32:59;98693.84;;;17.19;68.19
21359;BME280;13506;50.852;20.632;2022-07-29T02:35:28;98688.47;;;17.09;69.12
21359;BME280;13506;50.852;20.632;2022-07-29T02:37:56;98687.16;;;17.15;69.09
21359;BME280;13506;50.852;20.632;2022-07-29T02:40:43;98690.84;;;17.24;68.36
21359;BME280;13506;50.852;20.632;2022-07-29T02:43:11;98683.16;;;17.32;67.64
21359;BME280;13506;50.852;20.632;2022-07-29T02:45:39;98679.59;;;17.22;67.82
21359;BME280;13506;50.852;20.632;2022-07-29T02:48:14;98679.22;;;17.38;67.60
21359;BME280;13506;50.852;20.632;2022-07-29T02:50:51;98676.81;;;17.35;67.68
21359;BME280;13506;50.852;20.632;2022-07-29T02:53:24;98669.63;;;17.37;66.99
21359;BME280;13506;50.852;20.632;2022-07-29T02:55:56;98669.75;;;17.35;67.32
21359;BME280;13506;50.852;20.632;2022-07-29T02:58:28;98673.09;;;17.37;67.16
21359;BME280;13506;50.852;20.632;2022-07-29T03:01:01;98675.00;;;17.46;66.99
21359;BME280;13506;50.852;20.632;2022-07-29T03:03:36;98673.56;;;17.42;67.08
21359;BME280;13506;50.852;20.632;2022-07-29T03:06:05;98668.06;;;17.45;67.09
21359;BME280;13506;50.852;20.632;2022-07-29T03:08:35;98679.63;;;17.54;65.93
21359;BME280;13506;50.852;20.632;2022-07-29T03:11:03;98673.53;;;17.54;66.41
21359;BME280;13506;50.852;20.632;2022-07-29T03:13:31;98670.56;;;17.47;66.29
21359;BME280;13506;50.852;20.632;2022-07-29T03:15:59;98659.38;;;17.34;66.89
21359;BME280;13506;50.852;20.632;2022-07-29T03:18:27;98669.75;;;17.46;66.68
21359;BME280;13506;50.852;20.632;2022-07-29T03:20:56;98667.69;;;17.50;66.41
21359;BME280;13506;50.852;20.632;2022-07-29T03:23:24;98667.81;;;17.48;66.39
21359;BME280;13506;50.852;20.632;2022-07-29T03:25:54;98676.00;;;17.23;67.04
21359;BME280;13506;50.852;20.632;2022-07-29T03:28:22;98669.25;;;16.98;68.01
21359;BME280;13506;50.852;20.632;2022-07-29T03:30:50;98664.56;;;17.01;67.94
21359;BME280;13506;50.852;20.632;2022-07-29T03:33:18;98673.28;;;17.13;67.15
21359;BME280;13506;50.852;20.632;2022-07-29T03:35:45;98662.84;;;17.23;67.04
21359;BME280;13506;50.852;20.632;2022-07-29T03:38:15;98664.53;;;17.24;67.43
21359;BME280;13506;50.852;20.632;2022-07-29T03:40:48;98667.19;;;17.13;67.25
21359;BME280;13506;50.852;20.632;2022-07-29T03:43:18;98678.66;;;17.12;67.86
21359;BME280;13506;50.852;20.632;2022-07-29T03:45:49;98667.88;;;17.26;67.18
21359;BME280;13506;50.852;20.632;2022-07-29T03:48:22;98672.72;;;17.42;67.26
21359;BME280;13506;50.852;20.632;2022-07-29T03:50:51;98683.25;;;17.42;67.17
21359;BME280;13506;50.852;20.632;2022-07-29T03:53:20;98673.09;;;17.48;66.74
21359;BME280;13506;50.852;20.632;2022-07-29T03:55:54;98678.63;;;17.34;67.47
21359;BME280;13506;50.852;20.632;2022-07-29T03:58:23;98676.09;;;17.33;67.77
21359;BME280;13506;50.852;20.632;2022-07-29T04:00:54;98675.41;;;17.63;67.08
21359;BME280;13506;50.852;20.632;2022-07-29T04:03:22;98684.50;;;17.59;67.53
21359;BME280;13506;50.852;20.632;2022-07-29T04:05:59;98681.44;;;17.54;67.69
21359;BME280;13506;50.852;20.632;2022-07-29T04:08:29;98680.81;;;17.61;67.59
21359;BME280;13506;50.852;20.632;2022-07-29T04:10:56;98682.22;;;17.65;67.72
21359;BME280;13506;50.852;20.632;2022-07-29T04:13:23;98686.31;;;17.58;68.16
21359;BME280;13506;50.852;20.632;2022-07-29T04:15:51;98679.00;;;17.62;67.98
21359;BME280;13506;50.852;20.632;2022-07-29T04:18:19;98675.00;;;17.46;68.78
21359;BME280;13506;50.852;20.632;2022-07-29T04:20:46;98671.16;;;17.50;69.56
21359;BME280;13506;50.852;20.632;2022-07-29T04:23:14;98683.72;;;17.79;68.57
21359;BME280;13506;50.852;20.632;2022-07-29T04:25:43;98677.63;;;17.79;68.32
21359;BME280;13506;50.852;20.632;2022-07-29T04:28:11;98683.38;;;17.73;67.77
21359;BME280;13506;50.852;20.632;2022-07-29T04:30:38;98686.47;;;17.89;67.64
21359;BME280;13506;50.852;20.632;2022-07-29T04:33:07;98681.06;;;18.11;66.74
21359;BME280;13506;50.852;20.632;2022-07-29T04:35:36;98684.47;;;18.23;66.86
21359;BME280;13506;50.852;20.632;2022-07-29T04:38:06;98686.78;;;18.38;66.33
21359;BME280;13506;50.852;20.632;2022-07-29T04:40:34;98681.13;;;18.42;65.74
21359;BME280;13506;50.852;20.632;2022-07-29T04:43:03;98682.41;;;18.48;65.01
21359;BME280;13506;50.852;20.632;2022-07-29T04:45:31;98679.84;;;18.67;64.73
21359;BME280;13506;50.852;20.632;2022-07-29T04:47:58;98672.47;;;18.92;64.72
21359;BME280;13506;50.852;20.632;2022-07-29T04:50:26;98670.13;;;18.89;63.74
21359;BME280;13506;50.852;20.632;2022-07-29T04:52:53;98668.63;;;18.65;63.29
21359;BME280;13506;50.852;20.632;2022-07-29T04:55:21;98660.81;;;18.64;63.89
21359;BME280;13506;50.852;20.632;2022-07-29T04:57:49;98664.03;;;18.98;64.06
21359;BME280;13506;50.852;20.632;2022-07-29T05:00:17;98663.78;;;19.01;63.57
21359;BME280;13506;50.852;20.632;2022-07-29T05:02:45;98668.53;;;19.27;63.55
21359;BME280;13506;50.852;20.632;2022-07-29T05:05:13;98662.13;;;19.20;63.29
21359;BME280;13506;50.852;20.632;2022-07-29T05:07:41;98658.84;;;19.37;62.67
21359;BME280;13506;50.852;20.632;2022-07-29T05:10:09;98663.72;;;19.51;63.61
21359;BME280;13506;50.852;20.632;2022-07-29T05:12:36;98666.63;;;19.68;63.82
21359;BME280;13506;50.852;20.632;2022-07-29T05:15:06;98668.31;;;19.79;63.35
21359;BME280;13506;50.852;20.632;2022-07-29T05:17:34;98667.16;;;19.42;62.78
21359;BME280;13506;50.852;20.632;2022-07-29T05:20:03;98665.38;;;19.91;62.54
21359;BME280;13506;50.852;20.632;2022-07-29T05:22:31;98670.28;;;19.96;61.64
21359;BME280;13506;50.852;20.632;2022-07-29T05:24:58;98659.81;;;20.14;61.45
21359;BME280;13506;50.852;20.632;2022-07-29T05:27:25;98663.13;;;20.16;60.31
21359;BME280;13506;50.852;20.632;2022-07-29T05:29:53;98658.41;;;20.10;60.55
21359;BME280;13506;50.852;20.632;2022-07-29T05:32:21;98657.16;;;20.24;60.40
21359;BME280;13506;50.852;20.632;2022-07-29T05:34:50;98652.59;;;20.53;60.02
21359;BME280;13506;50.852;20.632;2022-07-29T05:37:18;98657.22;;;20.42;59.52
21359;BME280;13506;50.852;20.632;2022-07-29T05:39:46;98660.97;;;20.49;59.71
21359;BME280;13506;50.852;20.632;2022-07-29T05:42:14;98659.00;;;20.51;60.22
21359;BME280;13506;50.852;20.632;2022-07-29T05:44:41;98656.00;;;20.83;60.32
21359;BME280;13506;50.852;20.632;2022-07-29T05:47:09;98671.09;;;20.91;59.37
21359;BME280;13506;50.852;20.632;2022-07-29T05:49:37;98657.50;;;21.13;59.52
21359;BME280;13506;50.852;20.632;2022-07-29T05:52:06;98665.56;;;20.84;58.50
21359;BME280;13506;50.852;20.632;2022-07-29T05:54:34;98653.59;;;20.90;58.52
21359;BME280;13506;50.852;20.632;2022-07-29T05:57:02;98655.66;;;21.14;58.43
21359;BME280;13506;50.852;20.632;2022-07-29T05:59:31;98655.22;;;21.46;57.66
21359;BME280;13506;50.852;20.632;2022-07-29T06:02:02;98656.56;;;21.50;56.15
21359;BME280;13506;50.852;20.632;2022-07-29T06:04:31;98661.56;;;21.89;56.57
21359;BME280;13506;50.852;20.632;2022-07-29T06:06:58;98667.59;;;22.00;54.29
21359;BME280;13506;50.852;20.632;2022-07-29T06:09:27;98660.19;;;21.85;54.29
21359;BME280;13506;50.852;20.632;2022-07-29T06:11:55;98658.22;;;21.87;54.50
21359;BME280;13506;50.852;20.632;2022-07-29T06:14:23;98649.00;;;22.17;54.55
21359;BME280;13506;50.852;20.632;2022-07-29T06:16:53;98667.41;;;22.19;54.09
21359;BME280;13506;50.852;20.632;2022-07-29T06:19:21;98656.72;;;22.55;53.35
21359;BME280;13506;50.852;20.632;2022-07-29T06:21:49;98668.63;;;22.85;52.46
21359;BME280;13506;50.852;20.632;2022-07-29T06:24:16;98664.47;;;22.83;51.75
21359;BME280;13506;50.852;20.632;2022-07-29T06:26:45;98647.16;;;23.13;51.28
21359;BME280;13506;50.852;20.632;2022-07-29T06:29:13;98642.72;;;23.22;50.74
21359;BME280;13506;50.852;20.632;2022-07-29T06:31:41;98650.47;;;23.07;50.29
21359;BME280;13506;50.852;20.632;2022-07-29T06:34:08;98647.72;;;23.33;50.23
21359;BME280;13506;50.852;20.632;2022-07-29T06:36:36;98645.06;;;23.33;49.80
21359;BME280;13506;50.852;20.632;2022-07-29T06:39:05;98654.84;;;23.32;49.19
21359;BME280;13506;50.852;20.632;2022-07-29T06:41:33;98654.88;;;23.49;50.08
21359;BME280;13506;50.852;20.632;2022-07-29T06:44:10;98659.91;;;23.60;48.80
21359;BME280;13506;50.852;20.632;2022-07-29T06:46:37;98643.47;;;23.97;47.87
21359;BME280;13506;50.852;20.632;2022-07-29T06:49:05;98652.41;;;23.72;47.07
21359;BME280;13506;50.852;20.632;2022-07-29T06:51:33;98668.34;;;23.72;47.63
21359;BME280;13506;50.852;20.632;2022-07-29T06:54:01;98672.03;;;23.79;47.40
21359;BME280;13506;50.852;20.632;2022-07-29T06:56:32;98676.72;;;23.77;46.84
21359;BME280;13506;50.852;20.632;2022-07-29T06:59:01;98663.72;;;23.74;45.94
21359;BME280;13506;50.852;20.632;2022-07-29T07:01:30;98669.84;;;23.66;46.00
21359;BME280;13506;50.852;20.632;2022-07-29T07:03:58;98674.06;;;23.77;46.15
21359;BME280;13506;50.852;20.632;2022-07-29T07:06:25;98672.88;;;23.80;45.78
21359;BME280;13506;50.852;20.632;2022-07-29T07:08:53;98676.38;;;23.88;45.94
21359;BME280;13506;50.852;20.632;2022-07-29T07:11:20;98676.38;;;23.96;45.60
21359;BME280;13506;50.852;20.632;2022-07-29T07:13:48;98682.19;;;23.92;45.80
21359;BME280;13506;50.852;20.632;2022-07-29T07:16:16;98682.75;;;23.28;47.09
21359;BME280;13506;50.852;20.632;2022-07-29T07:18:45;98670.34;;;23.45;47.10
21359;BME280;13506;50.852;20.632;2022-07-29T07:21:13;98668.03;;;23.83;46.68
21359;BME280;13506;50.852;20.632;2022-07-29T07:23:40;98661.91;;;24.24;46.53
21359;BME280;13506;50.852;20.632;2022-07-29T07:26:08;98662.34;;;24.35;45.42
21359;BME280;13506;50.852;20.632;2022-07-29T07:28:36;98664.38;;;24.25;44.61
21359;BME280;13506;50.852;20.632;2022-07-29T07:31:04;98659.00;;;24.66;44.95
21359;BME280;13506;50.852;20.632;2022-07-29T07:33:32;98670.34;;;24.19;45.47
21359;BME280;13506;50.852;20.632;2022-07-29T07:36:01;98675.53;;;24.04;45.28
21359;BME280;13506;50.852;20.632;2022-07-29T07:38:28;98681.00;;;24.19;45.79
21359;BME280;13506;50.852;20.632;2022-07-29T07:40:56;98672.28;;;24.74;45.89
21359;BME280;13506;50.852;20.632;2022-07-29T07:43:24;98672.75;;;25.17;44.77
21359;BME280;13506;50.852;20.632;2022-07-29T07:45:51;98667.53;;;25.32;44.23
21359;BME280;13506;50.852;20.632;2022-07-29T07:48:19;98666.38;;;25.27;43.15
21359;BME280;13506;50.852;20.632;2022-07-29T07:50:46;98678.41;;;24.83;43.49
21359;BME280;13506;50.852;20.632;2022-07-29T07:53:16;98670.47;;;24.42;44.14
21359;BME280;13506;50.852;20.632;2022-07-29T07:55:44;98661.09;;;24.79;44.47
21359;BME280;13506;50.852;20.632;2022-07-29T07:58:12;98662.13;;;24.70;44.59
21359;BME280;13506;50.852;20.632;2022-07-29T08:00:39;98665.81;;;24.44;45.26
21359;BME280;13506;50.852;20.632;2022-07-29T08:03:07;98679.81;;;24.30;45.63
21359;BME280;13506;50.852;20.632;2022-07-29T08:05:34;98668.00;;;24.49;44.94
21359;BME280;13506;50.852;20.632;2022-07-29T08:08:02;98669.91;;;24.79;44.69
21359;BME280;13506;50.852;20.632;2022-07-29T08:10:31;98656.97;;;25.08;44.99
21359;BME280;13506;50.852;20.632;2022-07-29T08:13:17;98651.78;;;25.46;44.49
21359;BME280;13506;50.852;20.632;2022-07-29T08:15:45;98661.06;;;25.18;43.44
21359;BME280;13506;50.852;20.632;2022-07-29T08:18:13;98660.00;;;25.82;42.62
21359;BME280;13506;50.852;20.632;2022-07-29T08:20:41;98663.41;;;25.53;42.60
21359;BME280;13506;50.852;20.632;2022-07-29T08:23:08;98657.53;;;25.57;42.31
21359;BME280;13506;50.852;20.632;2022-07-29T08:25:38;98663.31;;;25.84;42.30
21359;BME280;13506;50.852;20.632;2022-07-29T08:28:06;98661.47;;;25.70;42.10
21359;BME280;13506;50.852;20.632;2022-07-29T08:30:35;98661.88;;;26.19;41.87
21359;BME280;13506;50.852;20.632;2022-07-29T08:33:02;98669.06;;;26.34;41.43
21359;BME280;13506;50.852;20.632;2022-07-29T08:35:30;98662.13;;;26.10;41.67
21359;BME280;13506;50.852;20.632;2022-07-29T08:37:58;98667.84;;;26.07;41.44
21359;BME280;13506;50.852;20.632;2022-07-29T08:40:25;98660.81;;;26.58;41.67
21359;BME280;13506;50.852;20.632;2022-07-29T08:42:54;98658.31;;;27.01;42.23
21359;BME280;13506;50.852;20.632;2022-07-29T08:45:23;98658.47;;;27.51;41.41
21359;BME280;13506;50.852;20.632;2022-07-29T08:47:52;98655.25;;;27.77;41.17
21359;BME280;13506;50.852;20.632;2022-07-29T08:50:21;98657.72;;;28.00;40.31
21359;BME280;13506;50.852;20.632;2022-07-29T08:52:49;98659.59;;;27.85;40.46
21359;BME280;13506;50.852;20.632;2022-07-29T08:55:18;98655.78;;;27.73;40.58
21359;BME280;13506;50.852;20.632;2022-07-29T08:57:47;98653.44;;;28.06;39.44
21359;BME280;13506;50.852;20.632;2022-07-29T09:00:18;98663.78;;;27.30;39.07
21359;BME280;13506;50.852;20.632;2022-07-29T09:02:48;98661.22;;;27.21;39.45
21359;BME280;13506;50.852;20.632;2022-07-29T09:05:19;98656.94;;;27.06;39.27
21359;BME280;13506;50.852;20.632;2022-07-29T09:07:47;98662.78;;;26.12;40.29
21359;BME280;13506;50.852;20.632;2022-07-29T09:10:14;98655.66;;;26.27;40.40
21359;BME280;13506;50.852;20.632;2022-07-29T09:12:42;98649.59;;;26.78;40.31
21359;BME280;13506;50.852;20.632;2022-07-29T09:15:10;98659.13;;;27.02;40.27
21359;BME280;13506;50.852;20.632;2022-07-29T09:17:43;98645.91;;;26.79;38.70
21359;BME280;13506;50.852;20.632;2022-07-29T09:20:13;98652.63;;;26.90;39.49
21359;BME280;13506;50.852;20.632;2022-07-29T09:22:41;98639.09;;;26.91;39.26
21359;BME280;13506;50.852;20.632;2022-07-29T09:25:12;98643.94;;;27.02;39.61
21359;BME280;13506;50.852;20.632;2022-07-29T09:27:40;98632.31;;;27.47;39.08
21359;BME280;13506;50.852;20.632;2022-07-29T09:30:09;98626.97;;;27.90;38.25
21359;BME280;13506;50.852;20.632;2022-07-29T09:32:57;98632.94;;;27.92;38.30
21359;BME280;13506;50.852;20.632;2022-07-29T09:35:28;98632.16;;;28.19;37.72
21359;BME280;13506;50.852;20.632;2022-07-29T09:37:56;98624.97;;;28.55;37.47
21359;BME280;13506;50.852;20.632;2022-07-29T09:40:26;98630.44;;;28.81;37.23
21359;BME280;13506;50.852;20.632;2022-07-29T09:42:54;98634.44;;;28.99;35.63
21359;BME280;13506;50.852;20.632;2022-07-29T09:45:29;98626.59;;;29.04;35.71
21359;BME280;13506;50.852;20.632;2022-07-29T09:47:58;98626.19;;;27.96;37.17
21359;BME280;13506;50.852;20.632;2022-07-29T09:50:38;98617.38;;;28.65;36.68
21359;BME280;13506;50.852;20.632;2022-07-29T09:53:07;98614.47;;;28.25;36.79
21359;BME280;13506;50.852;20.632;2022-07-29T09:55:47;98610.16;;;28.59;37.75
21359;BME280;13506;50.852;20.632;2022-07-29T09:58:17;98616.59;;;28.71;37.84
21359;BME280;13506;50.852;20.632;2022-07-29T10:00:46;98612.44;;;28.62;37.32
21359;BME280;13506;50.852;20.632;2022-07-29T10:03:16;98608.22;;;28.88;37.07
21359;BME280;13506;50.852;20.632;2022-07-29T10:05:45;98620.53;;;28.75;37.92
21359;BME280;13506;50.852;20.632;2022-07-29T10:08:13;98603.41;;;28.76;36.99
21359;BME280;13506;50.852;20.632;2022-07-29T10:10:42;98608.69;;;28.98;37.64
21359;BME280;13506;50.852;20.632;2022-07-29T10:13:13;98605.63;;;29.14;37.01
21359;BME280;13506;50.852;20.632;2022-07-29T10:15:43;98603.09;;;28.99;38.03
21359;BME280;13506;50.852;20.632;2022-07-29T10:18:14;98598.59;;;29.00;37.29
21359;BME280;13506;50.852;20.632;2022-07-29T10:20:44;98607.56;;;29.47;37.33
21359;BME280;13506;50.852;20.632;2022-07-29T10:23:11;98600.16;;;29.62;36.97
21359;BME280;13506;50.852;20.632;2022-07-29T10:25:40;98604.72;;;30.02;36.51
21359;BME280;13506;50.852;20.632;2022-07-29T10:28:08;98621.00;;;30.00;36.50
21359;BME280;13506;50.852;20.632;2022-07-29T10:30:38;98604.09;;;29.87;36.41
21359;BME280;13506;50.852;20.632;2022-07-29T10:33:29;98612.75;;;29.89;36.48
21359;BME280;13506;50.852;20.632;2022-07-29T10:36:11;98602.13;;;29.14;37.83
21359;BME280;13506;50.852;20.632;2022-07-29T10:38:48;98603.41;;;28.76;38.33
21359;BME280;13506;50.852;20.632;2022-07-29T10:41:47;98602.97;;;28.31;38.08
21359;BME280;13506;50.852;20.632;2022-07-29T10:44:20;98591.25;;;28.67;38.47
21359;BME280;13506;50.852;20.632;2022-07-29T10:46:49;98584.16;;;29.01;38.21
21359;BME280;13506;50.852;20.632;2022-07-29T10:49:20;98580.34;;;29.37;37.58
21359;BME280;13506;50.852;20.632;2022-07-29T10:52:03;98586.31;;;29.52;37.22
21359;BME280;13506;50.852;20.632;2022-07-29T10:54:44;98585.94;;;29.49;37.95
21359;BME280;13506;50.852;20.632;2022-07-29T10:57:15;98591.28;;;29.62;37.81
21359;BME280;13506;50.852;20.632;2022-07-29T10:59:44;98588.19;;;29.38;37.88
21359;BME280;13506;50.852;20.632;2022-07-29T11:02:44;98585.94;;;29.49;37.77
21359;BME280;13506;50.852;20.632;2022-07-29T11:05:17;98585.56;;;28.97;38.53
21359;BME280;13506;50.852;20.632;2022-07-29T11:08:23;98591.53;;;28.92;38.62
21359;BME280;13506;50.852;20.632;2022-07-29T11:14:06;98581.38;;;29.49;38.31
21359;BME280;13506;50.852;20.632;2022-07-29T11:17:03;98583.00;;;29.57;38.60
21359;BME280;13506;50.852;20.632;2022-07-29T11:19:31;98578.91;;;29.68;37.82
21359;BME280;13506;50.852;20.632;2022-07-29T11:22:00;98585.09;;;29.68;37.25
21359;BME280;13506;50.852;20.632;2022-07-29T11:24:29;98583.63;;;29.39;37.40
21359;BME280;13506;50.852;20.632;2022-07-29T11:27:16;98582.19;;;29.30;37.89
21359;BME280;13506;50.852;20.632;2022-07-29T11:29:56;98571.66;;;29.35;38.63
21359;BME280;13506;50.852;20.632;2022-07-29T11:32:25;98578.06;;;29.67;37.99
21359;BME280;13506;50.852;20.632;2022-07-29T11:35:14;98570.47;;;29.84;37.62
21359;BME280;13506;50.852;20.632;2022-07-29T11:37:45;98560.94;;;30.15;37.58
21359;BME280;13506;50.852;20.632;2022-07-29T11:40:15;98570.63;;;30.16;36.78
21359;BME280;13506;50.852;20.632;2022-07-29T11:42:46;98563.81;;;30.13;37.06
21359;BME280;13506;50.852;20.632;2022-07-29T11:45:21;98560.97;;;29.68;38.08
21359;BME280;13506;50.852;20.632;2022-07-29T11:47:52;98559.94;;;29.96;37.77
21359;BME280;13506;50.852;20.632;2022-07-29T11:50:35;98565.03;;;30.24;37.01
21359;BME280;13506;50.852;20.632;2022-07-29T11:53:11;98564.91;;;29.79;37.13
21359;BME280;13506;50.852;20.632;2022-07-29T11:55:40;98557.66;;;29.66;37.23
21359;BME280;13506;50.852;20.632;2022-07-29T11:58:08;98558.88;;;29.37;37.79
21359;BME280;13506;50.852;20.632;2022-07-29T12:00:38;98564.25;;;29.50;38.07
21359;BME280;13506;50.852;20.632;2022-07-29T12:03:08;98558.91;;;29.63;37.84
21359;BME280;13506;50.852;20.632;2022-07-29T12:05:40;98554.34;;;29.37;38.00
21359;BME280;13506;50.852;20.632;2022-07-29T12:08:16;98550.22;;;29.21;38.35
21359;BME280;13506;50.852;20.632;2022-07-29T12:10:47;98555.41;;;28.68;38.74
21359;BME280;13506;50.852;20.632;2022-07-29T12:13:18;98545.84;;;29.07;39.03
21359;BME280;13506;50.852;20.632;2022-07-29T12:15:52;98542.25;;;28.80;38.96
21359;BME280;13506;50.852;20.632;2022-07-29T12:18:21;98546.91;;;29.13;39.26
21359;BME280;13506;50.852;20.632;2022-07-29T12:20:49;98539.94;;;29.38;38.98
21359;BME280;13506;50.852;20.632;2022-07-29T12:23:25;98535.72;;;29.09;38.38
21359;BME280;13506;50.852;20.632;2022-07-29T12:25:53;98535.34;;;29.12;38.98
21359;BME280;13506;50.852;20.632;2022-07-29T12:28:21;98526.94;;;28.54;39.91
21359;BME280;13506;50.852;20.632;2022-07-29T12:30:50;98534.47;;;28.85;39.17
21359;BME280;13506;50.852;20.632;2022-07-29T12:33:20;98529.50;;;28.95;40.25
21359;BME280;13506;50.852;20.632;2022-07-29T12:35:51;98536.53;;;28.96;39.47
21359;BME280;13506;50.852;20.632;2022-07-29T12:38:21;98533.91;;;29.16;38.79
21359;BME280;13506;50.852;20.632;2022-07-29T12:40:52;98544.25;;;29.46;38.85
21359;BME280;13506;50.852;20.632;2022-07-29T12:43:22;98536.66;;;29.76;38.16
21359;BME280;13506;50.852;20.632;2022-07-29T12:45:51;98539.53;;;29.75;38.03
21359;BME280;13506;50.852;20.632;2022-07-29T12:48:33;98533.72;;;29.98;38.36
21359;BME280;13506;50.852;20.632;2022-07-29T12:51:04;98527.75;;;29.56;38.13
21359;BME280;13506;50.852;20.632;2022-07-29T12:53:32;98518.06;;;29.41;38.83
21359;BME280;13506;50.852;20.632;2022-07-29T12:56:02;98517.84;;;29.16;38.99
21359;BME280;13506;50.852;20.632;2022-07-29T12:58:33;98510.78;;;28.40;39.90
21359;BME280;13506;50.852;20.632;2022-07-29T13:01:06;98517.13;;;28.26;40.09
21359;BME280;13506;50.852;20.632;2022-07-29T13:03:51;98513.56;;;28.54;40.19
21359;BME280;13506;50.852;20.632;2022-07-29T13:06:36;98502.53;;;28.35;40.04
21359;BME280;13506;50.852;20.632;2022-07-29T13:09:11;98503.81;;;28.46;40.27
21359;BME280;13506;50.852;20.632;2022-07-29T13:11:44;98512.13;;;28.58;40.38